sensor_id;sensor_type;location;lat;lon;timestamp;pressure;altitude;pressure_sealevel;temperature;humidity
22047;BME280;11187;49.412;20.956;2023-02-23T00:00:26;95082.97;;;-0.28;100.00
22047;BME280;11187;49.412;20.956;2023-02-23T00:03:13;95079.66;;;-0.27;100.00
22047;BME280;11187;49.412;20.956;2023-02-23T00:05:46;95073.81;;;-0.26;100.00
22047;BME280;11187;49.412;20.956;2023-02-23T00:08:34;95076.34;;;-0.24;100.00
22047;BME280;11187;49.412;20.956;2023-02-23T00:11:10;95071.28;;;-0.26;100.00
22047;BME280;11187;49.412;20.956;2023-02-23T00:14:05;95070.41;;;-0.28;100.00
22047;BME280;11187;49.412;20.956;2023-02-23T00:16:40;95067.88;;;-0.28;100.00
22047;BME280;11187;49.412;20.956;2023-02-23T00:19:27;95067.94;;;-0.26;100.00
22047;BME280;11187;49.412;20.956;2023-02-23T00:22:00;95073.81;;;-0.26;100.00
22047;BME280;11187;49.412;20.956;2023-02-23T00:24:46;95075.44;;;-0.28;100.00
22047;BME280;11187;49.412;20.956;2023-02-23T00:27:22;95076.31;;;-0.26;100.00
22047;BME280;11187;49.412;20.956;2023-02-23T00:30:17;95072.13;;;-0.27;100.00
22047;BME280;11187;49.412;20.956;2023-02-23T00:32:51;95075.47;;;-0.26;100.00
22047;BME280;11187;49.412;20.956;2023-02-23T00:35:45;95072.13;;;-0.27;100.00
22047;BME280;11187;49.412;20.956;2023-02-23T00:38:41;95075.41;;;-0.29;100.00
22047;BME280;11187;49.412;20.956;2023-02-23T00:41:14;95075.38;;;-0.31;100.00
22047;BME280;11187;49.412;20.956;2023-02-23T00:44:16;95069.50;;;-0.31;100.00
22047;BME280;11187;49.412;20.956;2023-02-23T00:46:50;95076.94;;;-0.34;100.00
22047;BME280;11187;49.412;20.956;2023-02-23T00:49:38;95075.28;;;-0.35;100.00
22047;BME280;11187;49.412;20.956;2023-02-23T00:52:11;95076.13;;;-0.35;100.00
22047;BME280;11187;49.412;20.956;2023-02-23T00:54:59;95077.75;;;-0.37;100.00
22047;BME280;11187;49.412;20.956;2023-02-23T00:57:32;95075.22;;;-0.37;100.00
22047;BME280;11187;49.412;20.956;2023-02-23T01:00:20;95070.19;;;-0.38;100.00
22047;BME280;11187;49.412;20.956;2023-02-23T01:02:53;95076.84;;;-0.39;100.00
22047;BME280;11187;49.412;20.956;2023-02-23T01:05:41;95079.31;;;-0.42;100.00
22047;BME280;11187;49.412;20.956;2023-02-23T01:08:19;95076.75;;;-0.44;100.00
22047;BME280;11187;49.412;20.956;2023-02-23T01:11:12;95085.81;;;-0.50;100.00
22047;BME280;11187;49.412;20.956;2023-02-23T01:13:47;95079.03;;;-0.54;100.00
22047;BME280;11187;49.412;20.956;2023-02-23T01:16:35;95079.78;;;-0.57;100.00
22047;BME280;11187;49.412;20.956;2023-02-23T01:19:28;95077.16;;;-0.63;100.00
22047;BME280;11187;49.412;20.956;2023-02-23T01:22:06;95074.59;;;-0.65;100.00
22047;BME280;11187;49.412;20.956;2023-02-23T01:24:53;95088.00;;;-0.66;100.00
22047;BME280;11187;49.412;20.956;2023-02-23T01:27:26;95065.28;;;-0.69;100.00
22047;BME280;11187;49.412;20.956;2023-02-23T01:30:21;95068.47;;;-0.76;100.00
22047;BME280;11187;49.412;20.956;2023-02-23T01:33:15;95070.06;;;-0.78;100.00
22047;BME280;11187;49.412;20.956;2023-02-23T01:35:58;95067.56;;;-0.79;100.00
22047;BME280;11187;49.412;20.956;2023-02-23T01:38:45;95069.97;;;-0.82;100.00
22047;BME280;11187;49.412;20.956;2023-02-23T01:41:18;95067.38;;;-0.86;100.00
22047;BME280;11187;49.412;20.956;2023-02-23T01:47:06;95064.72;;;-0.92;100.00
22047;BME280;11187;49.412;20.956;2023-02-23T01:49:39;95062.97;;;-0.94;100.00
22047;BME280;11187;49.412;20.956;2023-02-23T01:52:34;95055.41;;;-0.96;100.00
22047;BME280;11187;49.412;20.956;2023-02-23T01:55:10;95057.06;;;-0.96;100.00
22047;BME280;11187;49.412;20.956;2023-02-23T01:58:12;95052.78;;;-1.00;100.00
22047;BME280;11187;49.412;20.956;2023-02-23T02:00:54;95056.06;;;-1.03;100.00
22047;BME280;11187;49.412;20.956;2023-02-23T02:03:54;95053.50;;;-1.05;100.00
22047;BME280;11187;49.412;20.956;2023-02-23T02:06:28;95050.13;;;-1.07;100.00
22047;BME280;11187;49.412;20.956;2023-02-23T02:09:16;95044.22;;;-1.09;100.00
22047;BME280;11187;49.412;20.956;2023-02-23T02:11:49;95046.69;;;-1.10;100.00
22047;BME280;11187;49.412;20.956;2023-02-23T02:14:36;95047.50;;;-1.11;100.00
22047;BME280;11187;49.412;20.956;2023-02-23T02:23:58;95044.09;;;-1.13;100.00
22047;BME280;11187;49.412;20.956;2023-02-23T02:42:28;95026.91;;;-1.30;100.00
22047;BME280;11187;49.412;20.956;2023-02-23T02:51:25;95040.25;;;-1.32;100.00
22047;BME280;11187;49.412;20.956;2023-02-23T02:54:01;95039.34;;;-1.34;100.00
22047;BME280;11187;49.412;20.956;2023-02-23T02:57:01;95039.34;;;-1.36;100.00
22047;BME280;11187;49.412;20.956;2023-02-23T02:59:56;95039.28;;;-1.37;100.00
22047;BME280;11187;49.412;20.956;2023-02-23T03:02:49;95035.88;;;-1.39;100.00
22047;BME280;11187;49.412;20.956;2023-02-23T03:05:55;95036.63;;;-1.43;100.00
22047;BME280;11187;49.412;20.956;2023-02-23T03:08:57;95039.00;;;-1.48;100.00
22047;BME280;11187;49.412;20.956;2023-02-23T03:12:09;95042.28;;;-1.52;100.00
22047;BME280;11187;49.412;20.956;2023-02-23T03:22:22;95042.94;;;-1.58;100.00
22047;BME280;11187;49.412;20.956;2023-02-23T03:25:50;95036.25;;;-1.57;100.00
22047;BME280;11187;49.412;20.956;2023-02-23T03:29:01;95043.88;;;-1.54;100.00
22047;BME280;11187;49.412;20.956;2023-02-23T03:32:25;95040.44;;;-1.58;100.00
22047;BME280;11187;49.412;20.956;2023-02-23T03:39:37;95037.84;;;-1.61;100.00
22047;BME280;11187;49.412;20.956;2023-02-23T03:42:53;95037.78;;;-1.62;100.00
22047;BME280;11187;49.412;20.956;2023-02-23T03:45:47;95041.91;;;-1.64;100.00
22047;BME280;11187;49.412;20.956;2023-02-23T03:49:02;95039.34;;;-1.67;100.00
22047;BME280;11187;49.412;20.956;2023-02-23T03:52:19;95042.63;;;-1.70;100.00
22047;BME280;11187;49.412;20.956;2023-02-23T03:55:37;95036.84;;;-1.67;100.00
22047;BME280;11187;49.412;20.956;2023-02-23T03:58:39;95031.69;;;-1.72;100.00
22047;BME280;11187;49.412;20.956;2023-02-23T04:01:53;95037.50;;;-1.73;100.00
22047;BME280;11187;49.412;20.956;2023-02-23T04:05:13;95037.44;;;-1.76;100.00
22047;BME280;11187;49.412;20.956;2023-02-23T04:08:08;95033.97;;;-1.80;100.00
22047;BME280;11187;49.412;20.956;2023-02-23T04:12:04;95033.06;;;-1.83;100.00
22047;BME280;11187;49.412;20.956;2023-02-23T04:18:13;95034.66;;;-1.85;100.00
22047;BME280;11187;49.412;20.956;2023-02-23T04:21:07;95032.94;;;-1.86;100.00
22047;BME280;11187;49.412;20.956;2023-02-23T04:24:01;95036.34;;;-1.86;100.00
22047;BME280;11187;49.412;20.956;2023-02-23T04:26:34;95030.41;;;-1.88;100.00
22047;BME280;11187;49.412;20.956;2023-02-23T04:29:28;95041.22;;;-1.91;100.00
22047;BME280;11187;49.412;20.956;2023-02-23T04:32:22;95034.56;;;-1.89;100.00
22047;BME280;11187;49.412;20.956;2023-02-23T04:34:55;95032.06;;;-1.89;100.00
22047;BME280;11187;49.412;20.956;2023-02-23T04:37:49;95027.84;;;-1.90;100.00
22047;BME280;11187;49.412;20.956;2023-02-23T04:40:43;95024.50;;;-1.90;100.00
22047;BME280;11187;49.412;20.956;2023-02-23T04:43:16;95021.94;;;-1.92;100.00
22047;BME280;11187;49.412;20.956;2023-02-23T04:46:03;95027.84;;;-1.90;100.00
22047;BME280;11187;49.412;20.956;2023-02-23T04:48:36;95030.38;;;-1.90;100.00
22047;BME280;11187;49.412;20.956;2023-02-23T04:51:30;95032.81;;;-1.91;100.00
22047;BME280;11187;49.412;20.956;2023-02-23T04:54:24;95024.50;;;-1.90;100.00
22047;BME280;11187;49.412;20.956;2023-02-23T04:57:12;95031.13;;;-1.92;100.00
22047;BME280;11187;49.412;20.956;2023-02-23T04:59:52;95028.63;;;-1.92;100.00
22047;BME280;11187;49.412;20.956;2023-02-23T05:02:25;95035.25;;;-1.94;100.00
22047;BME280;11187;49.412;20.956;2023-02-23T05:05:12;95035.38;;;-1.90;100.00
22047;BME280;11187;49.412;20.956;2023-02-23T05:07:45;95034.56;;;-1.89;100.00
22047;BME280;11187;49.412;20.956;2023-02-23T05:10:33;95031.97;;;-1.92;100.00
22047;BME280;11187;49.412;20.956;2023-02-23T05:13:06;95036.94;;;-1.93;100.00
22047;BME280;11187;49.412;20.956;2023-02-23T05:16:00;95040.22;;;-1.96;100.00
22047;BME280;11187;49.412;20.956;2023-02-23T05:18:54;95043.50;;;-1.98;100.00
22047;BME280;11187;49.412;20.956;2023-02-23T05:21:48;95035.06;;;-2.00;100.00
22047;BME280;11187;49.412;20.956;2023-02-23T05:24:22;95037.56;;;-2.02;100.00
22047;BME280;11187;49.412;20.956;2023-02-23T05:27:16;95038.34;;;-2.03;100.00
22047;BME280;11187;49.412;20.956;2023-02-23T05:29:49;95035.00;;;-2.03;100.00
22047;BME280;11187;49.412;20.956;2023-02-23T05:32:43;95038.28;;;-2.06;100.00
22047;BME280;11187;49.412;20.956;2023-02-23T05:35:38;95044.09;;;-2.07;100.00
22047;BME280;11187;49.412;20.956;2023-02-23T05:38:12;95045.75;;;-2.07;100.00
22047;BME280;11187;49.412;20.956;2023-02-23T05:41:09;95041.56;;;-2.08;100.00
22047;BME280;11187;49.412;20.956;2023-02-23T05:43:42;95039.84;;;-2.10;100.00
22047;BME280;11187;49.412;20.956;2023-02-23T05:46:33;95042.25;;;-2.13;100.00
22047;BME280;11187;49.412;20.956;2023-02-23T05:49:06;95044.81;;;-2.11;100.00
22047;BME280;11187;49.412;20.956;2023-02-23T05:51:53;95043.16;;;-2.11;100.00
22047;BME280;11187;49.412;20.956;2023-02-23T05:54:26;95042.44;;;-2.06;100.00
22047;BME280;11187;49.412;20.956;2023-02-23T05:57:13;95042.53;;;-2.03;100.00
22047;BME280;11187;49.412;20.956;2023-02-23T05:59:46;95046.78;;;-2.01;100.00
22047;BME280;11187;49.412;20.956;2023-02-23T06:02:33;95047.69;;;-1.99;100.00
22047;BME280;11187;49.412;20.956;2023-02-23T06:05:07;95044.47;;;-1.93;100.00
22047;BME280;11187;49.412;20.956;2023-02-23T06:07:55;95051.25;;;-1.91;100.00
22047;BME280;11187;49.412;20.956;2023-02-23T06:10:29;95055.47;;;-1.90;100.00
22047;BME280;11187;49.412;20.956;2023-02-23T06:13:16;95054.81;;;-1.82;100.00
22047;BME280;11187;49.412;20.956;2023-02-23T06:15:49;95056.66;;;-1.77;100.00
22047;BME280;11187;49.412;20.956;2023-02-23T06:18:36;95059.31;;;-1.71;100.00
22047;BME280;11187;49.412;20.956;2023-02-23T06:21:30;95062.06;;;-1.63;100.00
22047;BME280;11187;49.412;20.956;2023-02-23T06:24:24;95066.38;;;-1.57;100.00
22047;BME280;11187;49.412;20.956;2023-02-23T06:26:57;95065.66;;;-1.53;100.00
22047;BME280;11187;49.412;20.956;2023-02-23T06:29:44;95068.34;;;-1.47;100.00
22047;BME280;11187;49.412;20.956;2023-02-23T06:32:17;95062.59;;;-1.43;100.00
22047;BME280;11187;49.412;20.956;2023-02-23T06:35:06;95074.44;;;-1.37;100.00
22047;BME280;11187;49.412;20.956;2023-02-23T06:37:40;95073.69;;;-1.35;100.00
22047;BME280;11187;49.412;20.956;2023-02-23T06:40:27;95077.16;;;-1.30;100.00
22047;BME280;11187;49.412;20.956;2023-02-23T06:43:01;95070.59;;;-1.24;100.00
22047;BME280;11187;49.412;20.956;2023-02-23T06:45:55;95073.31;;;-1.17;100.00
22047;BME280;11187;49.412;20.956;2023-02-23T06:48:52;95072.63;;;-1.11;100.00
22047;BME280;11187;49.412;20.956;2023-02-23T06:51:47;95075.31;;;-1.03;100.00
22047;BME280;11187;49.412;20.956;2023-02-23T06:54:41;95074.59;;;-0.99;100.00
22047;BME280;11187;49.412;20.956;2023-02-23T06:57:14;95080.63;;;-0.93;100.00
22047;BME280;11187;49.412;20.956;2023-02-23T07:00:09;95077.50;;;-0.84;100.00
22047;BME280;11187;49.412;20.956;2023-02-23T07:02:43;95077.63;;;-0.78;100.00
22047;BME280;11187;49.412;20.956;2023-02-23T07:05:37;95076.09;;;-0.71;100.00
22047;BME280;11187;49.412;20.956;2023-02-23T07:08:32;95068.72;;;-0.65;100.00
22047;BME280;11187;49.412;20.956;2023-02-23T07:11:10;95073.97;;;-0.56;100.00
22047;BME280;11187;49.412;20.956;2023-02-23T07:13:59;95072.50;;;-0.48;100.00
22047;BME280;11187;49.412;20.956;2023-02-23T07:16:38;95071.81;;;-0.40;100.00
22047;BME280;11187;49.412;20.956;2023-02-23T07:19:33;95070.28;;;-0.34;100.00
22047;BME280;11187;49.412;20.956;2023-02-23T07:22:27;95072.13;;;-0.27;100.00
22047;BME280;11187;49.412;20.956;2023-02-23T07:25:05;95071.38;;;-0.21;100.00
22047;BME280;11187;49.412;20.956;2023-02-23T07:28:00;95066.59;;;-0.10;100.00
22047;BME280;11187;49.412;20.956;2023-02-23T07:30:55;95064.28;;;-0.01;100.00
22047;BME280;11187;49.412;20.956;2023-02-23T07:33:29;95065.25;;;0.06;100.00
22047;BME280;11187;49.412;20.956;2023-02-23T07:36:16;95067.91;;;0.13;100.00
22047;BME280;11187;49.412;20.956;2023-02-23T07:38:49;95062.22;;;0.20;100.00
22047;BME280;11187;49.412;20.956;2023-02-23T07:41:43;95066.47;;;0.25;100.00
22047;BME280;11187;49.412;20.956;2023-02-23T07:44:16;95065.78;;;0.32;100.00
22047;BME280;11187;49.412;20.956;2023-02-23T07:47:10;95060.06;;;0.39;100.00
22047;BME280;11187;49.412;20.956;2023-02-23T07:50:05;95063.56;;;0.46;100.00
22047;BME280;11187;49.412;20.956;2023-02-23T07:52:42;95054.38;;;0.49;100.00
22047;BME280;11187;49.412;20.956;2023-02-23T07:55:36;95056.19;;;0.56;100.00
22047;BME280;11187;49.412;20.956;2023-02-23T07:58:30;95063.91;;;0.64;100.00
22047;BME280;11187;49.412;20.956;2023-02-23T08:01:03;95062.38;;;0.74;100.00
22047;BME280;11187;49.412;20.956;2023-02-23T08:03:50;95059.19;;;0.84;100.00
22047;BME280;11187;49.412;20.956;2023-02-23T08:06:23;95058.47;;;0.90;100.00
22047;BME280;11187;49.412;20.956;2023-02-23T08:09:17;95062.84;;;0.98;100.00
22047;BME280;11187;49.412;20.956;2023-02-23T08:12:11;95054.59;;;1.07;100.00
22047;BME280;11187;49.412;20.956;2023-02-23T08:14:44;95059.75;;;1.15;100.00
22047;BME280;11187;49.412;20.956;2023-02-23T08:17:32;95059.03;;;1.22;100.00
22047;BME280;11187;49.412;20.956;2023-02-23T08:20:26;95053.25;;;1.29;100.00
22047;BME280;11187;49.412;20.956;2023-02-23T08:23:20;95055.88;;;1.35;100.00
22047;BME280;11187;49.412;20.956;2023-02-23T08:25:53;95056.81;;;1.42;100.00
22047;BME280;11187;49.412;20.956;2023-02-23T08:28:40;95055.28;;;1.50;100.00
22047;BME280;11187;49.412;20.956;2023-02-23T08:31:17;95050.34;;;1.58;100.00
22047;BME280;11187;49.412;20.956;2023-02-23T08:34:06;95058.88;;;1.66;100.00
22047;BME280;11187;49.412;20.956;2023-02-23T08:36:39;95051.44;;;1.75;100.00
22047;BME280;11187;49.412;20.956;2023-02-23T08:39:33;95049.84;;;1.83;100.00
22047;BME280;11187;49.412;20.956;2023-02-23T08:42:27;95048.28;;;1.90;100.00
22047;BME280;11187;49.412;20.956;2023-02-23T08:45:00;95047.59;;;2.00;100.00
22047;BME280;11187;49.412;20.956;2023-02-23T08:47:47;95057.00;;;2.12;100.00
22047;BME280;11187;49.412;20.956;2023-02-23T08:50:23;95047.91;;;2.25;100.00
22047;BME280;11187;49.412;20.956;2023-02-23T08:53:17;95050.59;;;2.39;100.00
22047;BME280;11187;49.412;20.956;2023-02-23T08:56:11;95055.81;;;2.54;100.00
22047;BME280;11187;49.412;20.956;2023-02-23T08:59:05;95051.78;;;2.70;100.00
22047;BME280;11187;49.412;20.956;2023-02-23T09:01:59;95059.56;;;2.88;100.00
22047;BME280;11187;49.412;20.956;2023-02-23T09:04:54;95054.69;;;3.08;100.00
22047;BME280;11187;49.412;20.956;2023-02-23T09:07:27;95049.00;;;3.29;100.00
22047;BME280;11187;49.412;20.956;2023-02-23T09:10:17;95042.41;;;3.50;100.00
22047;BME280;11187;49.412;20.956;2023-02-23T09:12:51;95050.16;;;3.76;99.61
22047;BME280;11187;49.412;20.956;2023-02-23T09:15:45;95053.72;;;4.04;98.48
22047;BME280;11187;49.412;20.956;2023-02-23T09:18:41;95058.09;;;4.30;97.07
22047;BME280;11187;49.412;20.956;2023-02-23T09:21:35;95042.97;;;4.51;96.40
22047;BME280;11187;49.412;20.956;2023-02-23T09:24:08;95047.25;;;4.72;95.95
22047;BME280;11187;49.412;20.956;2023-02-23T09:26:57;95053.22;;;4.94;94.03
22047;BME280;11187;49.412;20.956;2023-02-23T09:29:30;95052.44;;;5.09;94.05
22047;BME280;11187;49.412;20.956;2023-02-23T09:32:20;95049.06;;;5.26;94.04
22047;BME280;11187;49.412;20.956;2023-02-23T09:34:53;95052.44;;;5.35;92.94
22047;BME280;11187;49.412;20.956;2023-02-23T09:37:40;95039.75;;;5.46;92.96
22047;BME280;11187;49.412;20.956;2023-02-23T09:40:16;95056.69;;;5.52;91.66
22047;BME280;11187;49.412;20.956;2023-02-23T09:43:29;95048.22;;;5.56;91.33
22047;BME280;11187;49.412;20.956;2023-02-23T09:46:21;95049.94;;;5.57;91.39
22047;BME280;11187;49.412;20.956;2023-02-23T09:49:22;95046.53;;;5.58;90.91
22047;BME280;11187;49.412;20.956;2023-02-23T09:52:20;95045.69;;;5.59;91.57
22047;BME280;11187;49.412;20.956;2023-02-23T09:54:54;95042.31;;;5.55;92.07
22047;BME280;11187;49.412;20.956;2023-02-23T09:57:46;95045.69;;;5.51;92.10
22047;BME280;11187;49.412;20.956;2023-02-23T10:00:22;95042.31;;;5.52;91.08
22047;BME280;11187;49.412;20.956;2023-02-23T10:05:58;95036.38;;;5.49;90.89
22047;BME280;11187;49.412;20.956;2023-02-23T10:15:49;95031.28;;;5.42;91.45
22047;BME280;11187;49.412;20.956;2023-02-23T10:18:47;95035.53;;;5.45;91.61
22047;BME280;11187;49.412;20.956;2023-02-23T10:21:40;95033.84;;;5.50;91.90
22047;BME280;11187;49.412;20.956;2023-02-23T10:24:19;95023.69;;;5.49;91.94
22047;BME280;11187;49.412;20.956;2023-02-23T10:27:16;95027.06;;;5.54;91.91
22047;BME280;11187;49.412;20.956;2023-02-23T10:29:57;95027.91;;;5.57;91.45
22047;BME280;11187;49.412;20.956;2023-02-23T10:36:41;95020.28;;;5.56;90.55
22047;BME280;11187;49.412;20.956;2023-02-23T10:39:39;95017.78;;;5.54;91.12
22047;BME280;11187;49.412;20.956;2023-02-23T10:42:35;95021.13;;;5.56;91.40
22047;BME280;11187;49.412;20.956;2023-02-23T10:45:17;95014.38;;;5.60;91.20
22047;BME280;11187;49.412;20.956;2023-02-23T10:48:30;95007.59;;;5.62;90.52
22047;BME280;11187;49.412;20.956;2023-02-23T10:51:06;95005.91;;;5.62;90.69
22047;BME280;11187;49.412;20.956;2023-02-23T10:53:53;95002.53;;;5.63;90.73
22047;BME280;11187;49.412;20.956;2023-02-23T10:56:42;95003.34;;;5.62;90.71
22047;BME280;11187;49.412;20.956;2023-02-23T10:59:29;94991.50;;;5.63;90.51
22047;BME280;11187;49.412;20.956;2023-02-23T11:02:22;94991.50;;;5.64;90.81
22047;BME280;11187;49.412;20.956;2023-02-23T11:05:43;94983.88;;;5.66;90.15
22047;BME280;11187;49.412;20.956;2023-02-23T11:08:22;94980.50;;;5.70;90.91
22047;BME280;11187;49.412;20.956;2023-02-23T11:13:49;94976.22;;;5.78;90.99
22047;BME280;11187;49.412;20.956;2023-02-23T11:16:39;94977.06;;;5.83;90.69
22047;BME280;11187;49.412;20.956;2023-02-23T11:19:26;94973.69;;;5.86;90.50
22047;BME280;11187;49.412;20.956;2023-02-23T11:22:19;94973.69;;;5.91;90.15
22047;BME280;11187;49.412;20.956;2023-02-23T11:24:59;94966.91;;;5.94;89.98
22047;BME280;11187;49.412;20.956;2023-02-23T11:27:50;94968.56;;;6.01;89.39
22047;BME280;11187;49.412;20.956;2023-02-23T11:30:35;94970.19;;;6.24;87.97
22047;BME280;11187;49.412;20.956;2023-02-23T11:33:28;94964.25;;;6.30;88.51
22047;BME280;11187;49.412;20.956;2023-02-23T11:36:14;94964.19;;;6.42;87.54
22047;BME280;11187;49.412;20.956;2023-02-23T11:42:03;94967.47;;;6.62;87.20
22047;BME280;11187;49.412;20.956;2023-02-23T11:45:02;94958.16;;;6.58;87.60
22047;BME280;11187;49.412;20.956;2023-02-23T11:48:03;94958.19;;;6.54;87.66
22047;BME280;11187;49.412;20.956;2023-02-23T11:50:37;94958.19;;;6.54;87.26
22047;BME280;11187;49.412;20.956;2023-02-23T11:53:34;94964.13;;;6.53;88.17
22047;BME280;11187;49.412;20.956;2023-02-23T11:56:08;94958.22;;;6.52;88.27
22047;BME280;11187;49.412;20.956;2023-02-23T11:59:01;94957.38;;;6.50;88.31
22047;BME280;11187;49.412;20.956;2023-02-23T12:01:43;94955.66;;;6.54;88.33
22047;BME280;11187;49.412;20.956;2023-02-23T12:04:39;94954.81;;;6.53;88.67
22047;BME280;11187;49.412;20.956;2023-02-23T12:08:10;94958.19;;;6.54;88.29
22047;BME280;11187;49.412;20.956;2023-02-23T12:10:52;94953.94;;;6.57;88.56
22047;BME280;11187;49.412;20.956;2023-02-23T12:13:51;94946.31;;;6.59;88.28
22047;BME280;11187;49.412;20.956;2023-02-23T12:16:56;94943.78;;;6.57;88.26
22047;BME280;11187;49.412;20.956;2023-02-23T12:19:36;94950.53;;;6.61;88.19
22047;BME280;11187;49.412;20.956;2023-02-23T12:22:32;94949.66;;;6.64;87.35
22047;BME280;11187;49.412;20.956;2023-02-23T12:25:17;94948.81;;;6.66;87.74
22047;BME280;11187;49.412;20.956;2023-02-23T12:28:32;94938.63;;;6.68;87.73
22047;BME280;11187;49.412;20.956;2023-02-23T12:31:42;94942.00;;;6.70;87.94
22047;BME280;11187;49.412;20.956;2023-02-23T12:40:06;94933.47;;;6.74;87.38
22047;BME280;11187;49.412;20.956;2023-02-23T12:43:11;94930.91;;;6.79;87.97
22047;BME280;11187;49.412;20.956;2023-02-23T12:46:15;94929.22;;;6.79;87.70
22047;BME280;11187;49.412;20.956;2023-02-23T12:52:09;94924.94;;;6.84;87.49
22047;BME280;11187;49.412;20.956;2023-02-23T12:54:46;94920.69;;;6.83;87.77
22047;BME280;11187;49.412;20.956;2023-02-23T12:58:23;94924.09;;;6.84;87.34
22047;BME280;11187;49.412;20.956;2023-02-23T13:01:42;94924.06;;;6.87;87.58
22047;BME280;11187;49.412;20.956;2023-02-23T13:08:02;94917.28;;;6.90;86.57
22047;BME280;11187;49.412;20.956;2023-02-23T13:11:15;94915.56;;;6.91;86.92
22047;BME280;11187;49.412;20.956;2023-02-23T13:14:12;94918.09;;;6.89;86.70
22047;BME280;11187;49.412;20.956;2023-02-23T13:20:14;94908.75;;;6.90;87.29
22047;BME280;11187;49.412;20.956;2023-02-23T13:32:07;94914.63;;;7.01;86.73
22047;BME280;11187;49.412;20.956;2023-02-23T13:35:01;94912.94;;;7.02;86.20
22047;BME280;11187;49.412;20.956;2023-02-23T13:37:41;94908.66;;;7.04;86.55
22047;BME280;11187;49.412;20.956;2023-02-23T13:40:41;94900.19;;;7.03;87.23
22047;BME280;11187;49.412;20.956;2023-02-23T13:43:53;94897.63;;;7.05;86.92
22047;BME280;11187;49.412;20.956;2023-02-23T13:46:42;94904.41;;;7.06;86.88
22047;BME280;11187;49.412;20.956;2023-02-23T13:49:39;94897.63;;;7.05;87.07
22047;BME280;11187;49.412;20.956;2023-02-23T13:52:36;94900.22;;;7.02;87.98
22047;BME280;11187;49.412;20.956;2023-02-23T13:55:42;94894.28;;;7.00;87.78
22047;BME280;11187;49.412;20.956;2023-02-23T13:58:45;94900.25;;;6.94;87.75
22047;BME280;11187;49.412;20.956;2023-02-23T14:01:21;94890.13;;;6.89;87.14
22047;BME280;11187;49.412;20.956;2023-02-23T14:07:03;94886.78;;;6.83;88.12
22047;BME280;11187;49.412;20.956;2023-02-23T14:12:41;94886.84;;;6.72;87.75
22047;BME280;11187;49.412;20.956;2023-02-23T14:21:28;94884.41;;;6.60;88.66
22047;BME280;11187;49.412;20.956;2023-02-23T14:24:19;94887.84;;;6.54;88.00
22047;BME280;11187;49.412;20.956;2023-02-23T14:33:47;94877.72;;;6.42;87.98
22047;BME280;11187;49.412;20.956;2023-02-23T14:36:42;94887.09;;;6.35;88.15
22047;BME280;11187;49.412;20.956;2023-02-23T14:39:25;94888.81;;;6.32;88.49
22047;BME280;11187;49.412;20.956;2023-02-23T14:42:24;94880.34;;;6.26;88.21
22047;BME280;11187;49.412;20.956;2023-02-23T14:45:04;94882.06;;;6.24;88.07
22047;BME280;11187;49.412;20.956;2023-02-23T14:48:00;94878.72;;;6.21;88.71
22047;BME280;11187;49.412;20.956;2023-02-23T14:50:36;94879.56;;;6.18;88.84
22047;BME280;11187;49.412;20.956;2023-02-23T14:53:30;94874.47;;;6.15;88.37
22047;BME280;11187;49.412;20.956;2023-02-23T14:56:16;94871.97;;;6.11;88.65
22047;BME280;11187;49.412;20.956;2023-02-23T14:59:34;94878.75;;;6.09;88.91
22047;BME280;11187;49.412;20.956;2023-02-23T15:02:16;94870.31;;;6.05;89.21
22047;BME280;11187;49.412;20.956;2023-02-23T15:05:25;94867.81;;;6.02;89.65
22047;BME280;11187;49.412;20.956;2023-02-23T15:08:06;94867.81;;;5.97;89.74
22047;BME280;11187;49.412;20.956;2023-02-23T15:11:09;94861.88;;;5.92;90.27
22047;BME280;11187;49.412;20.956;2023-02-23T15:13:47;94856.84;;;5.86;90.29
22047;BME280;11187;49.412;20.956;2023-02-23T15:16:35;94858.53;;;5.78;90.46
22047;BME280;11187;49.412;20.956;2023-02-23T15:19:16;94861.94;;;5.74;90.84
22047;BME280;11187;49.412;20.956;2023-02-23T15:22:04;94853.50;;;5.69;90.77
22047;BME280;11187;49.412;20.956;2023-02-23T15:24:47;94856.91;;;5.64;91.68
22047;BME280;11187;49.412;20.956;2023-02-23T15:27:43;94857.78;;;5.59;92.01
22047;BME280;11187;49.412;20.956;2023-02-23T15:30:19;94854.38;;;5.54;91.79
22047;BME280;11187;49.412;20.956;2023-02-23T15:33:21;94856.09;;;5.49;92.56
22047;BME280;11187;49.412;20.956;2023-02-23T15:36:30;94858.69;;;5.41;91.88
22047;BME280;11187;49.412;20.956;2023-02-23T15:39:12;94858.69;;;5.36;92.32
22047;BME280;11187;49.412;20.956;2023-02-23T15:42:01;94856.16;;;5.29;92.80
22047;BME280;11187;49.412;20.956;2023-02-23T15:44:34;94857.00;;;5.21;92.93
22047;BME280;11187;49.412;20.956;2023-02-23T15:47:30;94846.03;;;5.12;93.37
22047;BME280;11187;49.412;20.956;2023-02-23T15:50:06;94842.69;;;5.07;93.11
22047;BME280;11187;49.412;20.956;2023-02-23T15:53:01;94850.28;;;4.99;93.59
22047;BME280;11187;49.412;20.956;2023-02-23T15:55:36;94849.44;;;4.92;93.77
22047;BME280;11187;49.412;20.956;2023-02-23T15:58:29;94846.91;;;4.83;94.15
22047;BME280;11187;49.412;20.956;2023-02-23T16:01:24;94850.28;;;4.74;94.55
22047;BME280;11187;49.412;20.956;2023-02-23T16:04:19;94852.00;;;4.66;94.70
22047;BME280;11187;49.412;20.956;2023-02-23T16:07:22;94848.59;;;4.58;95.08
22047;BME280;11187;49.412;20.956;2023-02-23T16:10:22;94849.44;;;4.46;95.61
22047;BME280;11187;49.412;20.956;2023-02-23T16:13:13;94849.47;;;4.38;95.85
22047;BME280;11187;49.412;20.956;2023-02-23T16:15:49;94852.81;;;4.30;95.79
22047;BME280;11187;49.412;20.956;2023-02-23T16:18:40;94851.13;;;4.23;96.26
22047;BME280;11187;49.412;20.956;2023-02-23T16:21:36;94856.16;;;4.15;96.49
22047;BME280;11187;49.412;20.956;2023-02-23T16:24:30;94847.72;;;4.07;96.85
22047;BME280;11187;49.412;20.956;2023-02-23T16:27:25;94852.75;;;4.01;97.18
22047;BME280;11187;49.412;20.956;2023-02-23T16:30:15;94851.03;;;3.95;97.31
22047;BME280;11187;49.412;20.956;2023-02-23T16:33:22;94851.88;;;3.89;97.88